sensor_id;sensor_type;location;lat;lon;timestamp;temperature;humidity
326;DHT22;150;52.352;14.058;2022-10-17T00:01:56;16.10;46.90
326;DHT22;150;52.352;14.058;2022-10-17T00:04:22;16.10;47.10
326;DHT22;150;52.352;14.058;2022-10-17T00:06:50;16.10;46.90
326;DHT22;150;52.352;14.058;2022-10-17T00:09:17;16.10;46.90
326;DHT22;150;52.352;14.058;2022-10-17T00:11:43;16.10;47.10
326;DHT22;150;52.352;14.058;2022-10-17T00:14:10;16.10;47.00
326;DHT22;150;52.352;14.058;2022-10-17T00:16:37;16.10;47.30
326;DHT22;150;52.352;14.058;2022-10-17T00:19:04;16.10;47.20
326;DHT22;150;52.352;14.058;2022-10-17T00:21:32;16.10;47.00
326;DHT22;150;52.352;14.058;2022-10-17T00:24:00;16.20;47.00
326;DHT22;150;52.352;14.058;2022-10-17T00:26:27;16.10;46.70
326;DHT22;150;52.352;14.058;2022-10-17T00:28:54;16.10;46.80
326;DHT22;150;52.352;14.058;2022-10-17T00:31:22;16.20;47.10
326;DHT22;150;52.352;14.058;2022-10-17T00:33:49;16.20;47.10
326;DHT22;150;52.352;14.058;2022-10-17T00:36:18;16.20;47.20
326;DHT22;150;52.352;14.058;2022-10-17T00:38:48;16.20;47.20
326;DHT22;150;52.352;14.058;2022-10-17T00:41:18;16.20;47.00
326;DHT22;150;52.352;14.058;2022-10-17T00:43:53;16.20;47.20
326;DHT22;150;52.352;14.058;2022-10-17T00:46:22;16.20;47.20
326;DHT22;150;52.352;14.058;2022-10-17T00:48:50;16.30;47.90
326;DHT22;150;52.352;14.058;2022-10-17T00:51:20;16.20;47.00
326;DHT22;150;52.352;14.058;2022-10-17T00:53:48;16.20;47.30
326;DHT22;150;52.352;14.058;2022-10-17T00:56:18;16.20;47.70
326;DHT22;150;52.352;14.058;2022-10-17T00:58:45;16.20;47.90
326;DHT22;150;52.352;14.058;2022-10-17T01:01:11;16.20;47.90
326;DHT22;150;52.352;14.058;2022-10-17T01:03:38;16.20;48.30
326;DHT22;150;52.352;14.058;2022-10-17T01:06:05;16.10;48.40
326;DHT22;150;52.352;14.058;2022-10-17T01:08:31;16.00;48.30
326;DHT22;150;52.352;14.058;2022-10-17T01:11:04;16.00;48.40
326;DHT22;150;52.352;14.058;2022-10-17T01:13:39;16.00;48.40
326;DHT22;150;52.352;14.058;2022-10-17T01:16:12;16.00;48.30
326;DHT22;150;52.352;14.058;2022-10-17T01:18:57;16.00;48.30
326;DHT22;150;52.352;14.058;2022-10-17T01:21:38;16.00;47.80
326;DHT22;150;52.352;14.058;2022-10-17T01:24:32;16.00;47.60
326;DHT22;150;52.352;14.058;2022-10-17T01:33:21;15.90;47.30
326;DHT22;150;52.352;14.058;2022-10-17T01:35:58;15.90;47.10
326;DHT22;150;52.352;14.058;2022-10-17T01:38:30;15.80;46.70
326;DHT22;150;52.352;14.058;2022-10-17T01:41:02;15.80;46.80
326;DHT22;150;52.352;14.058;2022-10-17T01:43:36;15.80;46.90
326;DHT22;150;52.352;14.058;2022-10-17T01:46:10;15.80;46.90
326;DHT22;150;52.352;14.058;2022-10-17T01:48:42;15.70;46.90
326;DHT22;150;52.352;14.058;2022-10-17T01:51:12;15.70;47.60
326;DHT22;150;52.352;14.058;2022-10-17T01:53:45;15.70;48.10
326;DHT22;150;52.352;14.058;2022-10-17T01:56:13;15.60;48.00
326;DHT22;150;52.352;14.058;2022-10-17T01:58:46;15.50;48.00
326;DHT22;150;52.352;14.058;2022-10-17T02:01:14;15.60;48.00
326;DHT22;150;52.352;14.058;2022-10-17T02:03:44;15.60;48.00
326;DHT22;150;52.352;14.058;2022-10-17T02:06:12;15.60;47.20
326;DHT22;150;52.352;14.058;2022-10-17T02:08:41;15.50;47.20
326;DHT22;150;52.352;14.058;2022-10-17T02:11:13;15.50;48.00
326;DHT22;150;52.352;14.058;2022-10-17T02:13:55;15.50;47.60
326;DHT22;150;52.352;14.058;2022-10-17T02:16:31;15.40;47.40
326;DHT22;150;52.352;14.058;2022-10-17T02:22:31;15.40;47.80
326;DHT22;150;52.352;14.058;2022-10-17T02:25:03;15.30;47.70
326;DHT22;150;52.352;14.058;2022-10-17T02:27:38;15.30;47.70
326;DHT22;150;52.352;14.058;2022-10-17T02:30:12;15.30;47.80
326;DHT22;150;52.352;14.058;2022-10-17T02:32:53;15.20;48.90
326;DHT22;150;52.352;14.058;2022-10-17T02:35:50;15.30;49.50
326;DHT22;150;52.352;14.058;2022-10-17T02:38:42;15.30;50.00
326;DHT22;150;52.352;14.058;2022-10-17T02:41:13;15.30;50.00
326;DHT22;150;52.352;14.058;2022-10-17T02:43:48;15.30;49.90
326;DHT22;150;52.352;14.058;2022-10-17T02:46:23;15.20;49.60
326;DHT22;150;52.352;14.058;2022-10-17T02:49:09;15.20;49.50
326;DHT22;150;52.352;14.058;2022-10-17T02:52:02;15.30;49.00
326;DHT22;150;52.352;14.058;2022-10-17T02:54:47;15.20;48.00
326;DHT22;150;52.352;14.058;2022-10-17T02:57:27;15.20;47.60
326;DHT22;150;52.352;14.058;2022-10-17T03:00:04;15.20;47.60
326;DHT22;150;52.352;14.058;2022-10-17T03:02:41;15.20;47.70
326;DHT22;150;52.352;14.058;2022-10-17T03:05:36;15.20;47.60
326;DHT22;150;52.352;14.058;2022-10-17T03:08:03;15.10;47.60
326;DHT22;150;52.352;14.058;2022-10-17T03:10:39;15.10;47.60
326;DHT22;150;52.352;14.058;2022-10-17T03:13:05;15.10;47.60
326;DHT22;150;52.352;14.058;2022-10-17T03:15:32;15.10;47.60
326;DHT22;150;52.352;14.058;2022-10-17T03:17:59;15.10;47.00
326;DHT22;150;52.352;14.058;2022-10-17T03:20:25;15.00;46.60
326;DHT22;150;52.352;14.058;2022-10-17T03:22:52;15.00;46.90
326;DHT22;150;52.352;14.058;2022-10-17T03:25:19;15.00;47.10
326;DHT22;150;52.352;14.058;2022-10-17T03:27:47;15.00;46.80
326;DHT22;150;52.352;14.058;2022-10-17T03:30:13;14.90;46.30
326;DHT22;150;52.352;14.058;2022-10-17T03:32:40;14.90;46.40
326;DHT22;150;52.352;14.058;2022-10-17T03:35:07;14.90;46.70
326;DHT22;150;52.352;14.058;2022-10-17T03:37:34;14.80;46.60
326;DHT22;150;52.352;14.058;2022-10-17T03:40:00;14.80;47.20
326;DHT22;150;52.352;14.058;2022-10-17T03:42:27;14.70;46.70
326;DHT22;150;52.352;14.058;2022-10-17T03:44:55;14.70;47.20
326;DHT22;150;52.352;14.058;2022-10-17T03:47:21;14.70;47.20
326;DHT22;150;52.352;14.058;2022-10-17T03:49:48;14.70;47.20
326;DHT22;150;52.352;14.058;2022-10-17T03:52:17;14.80;48.10
326;DHT22;150;52.352;14.058;2022-10-17T03:54:44;14.90;49.00
326;DHT22;150;52.352;14.058;2022-10-17T03:57:11;14.90;50.20
326;DHT22;150;52.352;14.058;2022-10-17T03:59:37;15.00;50.70
326;DHT22;150;52.352;14.058;2022-10-17T04:02:05;15.00;50.90
326;DHT22;150;52.352;14.058;2022-10-17T04:04:32;15.10;51.30
326;DHT22;150;52.352;14.058;2022-10-17T04:06:58;15.10;51.60
326;DHT22;150;52.352;14.058;2022-10-17T04:09:26;15.10;51.70
326;DHT22;150;52.352;14.058;2022-10-17T04:11:53;15.20;51.50
326;DHT22;150;52.352;14.058;2022-10-17T04:14:19;15.20;51.00
326;DHT22;150;52.352;14.058;2022-10-17T04:16:46;15.30;51.80
326;DHT22;150;52.352;14.058;2022-10-17T04:19:14;15.30;50.90
326;DHT22;150;52.352;14.058;2022-10-17T04:21:40;15.30;50.80
326;DHT22;150;52.352;14.058;2022-10-17T04:24:09;15.30;50.70
326;DHT22;150;52.352;14.058;2022-10-17T04:26:37;15.30;50.90
326;DHT22;150;52.352;14.058;2022-10-17T04:29:03;15.20;51.40
326;DHT22;150;52.352;14.058;2022-10-17T04:31:30;15.20;51.50
326;DHT22;150;52.352;14.058;2022-10-17T04:33:57;15.20;52.20
326;DHT22;150;52.352;14.058;2022-10-17T04:36:25;15.20;52.80
326;DHT22;150;52.352;14.058;2022-10-17T04:38:51;15.20;52.60
326;DHT22;150;52.352;14.058;2022-10-17T04:41:18;15.20;52.80
326;DHT22;150;52.352;14.058;2022-10-17T04:43:45;15.20;53.20
326;DHT22;150;52.352;14.058;2022-10-17T04:46:13;15.10;53.50
326;DHT22;150;52.352;14.058;2022-10-17T04:48:40;15.10;53.80
326;DHT22;150;52.352;14.058;2022-10-17T04:51:10;15.00;53.80
326;DHT22;150;52.352;14.058;2022-10-17T04:53:39;15.00;54.30
326;DHT22;150;52.352;14.058;2022-10-17T04:56:09;15.00;54.70
326;DHT22;150;52.352;14.058;2022-10-17T04:58:36;14.90;55.10
326;DHT22;150;52.352;14.058;2022-10-17T05:01:04;14.90;55.50
326;DHT22;150;52.352;14.058;2022-10-17T05:03:31;14.90;56.00
326;DHT22;150;52.352;14.058;2022-10-17T05:06:00;14.90;56.40
326;DHT22;150;52.352;14.058;2022-10-17T05:08:28;14.90;56.90
326;DHT22;150;52.352;14.058;2022-10-17T05:10:56;14.90;57.70
326;DHT22;150;52.352;14.058;2022-10-17T05:13:22;14.90;57.50
326;DHT22;150;52.352;14.058;2022-10-17T05:15:49;15.00;57.10
326;DHT22;150;52.352;14.058;2022-10-17T05:18:16;15.00;57.00
326;DHT22;150;52.352;14.058;2022-10-17T05:20:42;14.90;57.60
326;DHT22;150;52.352;14.058;2022-10-17T05:23:09;15.00;57.70
326;DHT22;150;52.352;14.058;2022-10-17T05:25:35;15.00;57.70
326;DHT22;150;52.352;14.058;2022-10-17T05:28:03;15.00;57.70
326;DHT22;150;52.352;14.058;2022-10-17T05:30:30;15.00;57.70
326;DHT22;150;52.352;14.058;2022-10-17T05:32:57;15.00;57.70
326;DHT22;150;52.352;14.058;2022-10-17T05:35:23;15.00;57.90
326;DHT22;150;52.352;14.058;2022-10-17T05:37:50;15.00;58.60
326;DHT22;150;52.352;14.058;2022-10-17T05:40:16;15.00;59.30
326;DHT22;150;52.352;14.058;2022-10-17T05:42:46;15.00;59.20
326;DHT22;150;52.352;14.058;2022-10-17T05:45:15;15.10;59.60
326;DHT22;150;52.352;14.058;2022-10-17T05:47:42;15.20;59.50
326;DHT22;150;52.352;14.058;2022-10-17T05:50:09;15.20;59.00
326;DHT22;150;52.352;14.058;2022-10-17T05:52:35;15.30;58.90
326;DHT22;150;52.352;14.058;2022-10-17T05:55:02;15.20;58.80
326;DHT22;150;52.352;14.058;2022-10-17T05:57:29;15.30;59.00
326;DHT22;150;52.352;14.058;2022-10-17T05:59:56;15.40;58.70
326;DHT22;150;52.352;14.058;2022-10-17T06:02:24;15.40;58.80
326;DHT22;150;52.352;14.058;2022-10-17T06:04:50;15.50;59.00
326;DHT22;150;52.352;14.058;2022-10-17T06:07:17;15.40;59.10
326;DHT22;150;52.352;14.058;2022-10-17T06:09:44;15.40;60.70
326;DHT22;150;52.352;14.058;2022-10-17T06:12:10;15.40;60.00
326;DHT22;150;52.352;14.058;2022-10-17T06:14:37;15.40;61.00
326;DHT22;150;52.352;14.058;2022-10-17T06:17:03;15.40;61.10
326;DHT22;150;52.352;14.058;2022-10-17T06:19:31;15.50;61.40
326;DHT22;150;52.352;14.058;2022-10-17T06:21:58;15.50;61.60
326;DHT22;150;52.352;14.058;2022-10-17T06:24:25;15.60;61.60
326;DHT22;150;52.352;14.058;2022-10-17T06:26:51;15.70;61.40
326;DHT22;150;52.352;14.058;2022-10-17T06:29:18;15.80;61.30
326;DHT22;150;52.352;14.058;2022-10-17T06:31:45;15.90;60.60
326;DHT22;150;52.352;14.058;2022-10-17T06:34:11;15.80;60.50
326;DHT22;150;52.352;14.058;2022-10-17T06:36:39;15.90;60.60
326;DHT22;150;52.352;14.058;2022-10-17T06:39:06;16.00;60.90
326;DHT22;150;52.352;14.058;2022-10-17T06:41:32;16.10;60.70
326;DHT22;150;52.352;14.058;2022-10-17T06:43:59;16.20;60.20
326;DHT22;150;52.352;14.058;2022-10-17T06:46:26;16.20;60.00
326;DHT22;150;52.352;14.058;2022-10-17T06:48:54;16.30;59.90
326;DHT22;150;52.352;14.058;2022-10-17T06:51:20;16.50;59.70
326;DHT22;150;52.352;14.058;2022-10-17T06:53:48;16.60;59.20
326;DHT22;150;52.352;14.058;2022-10-17T06:56:15;16.70;59.70
326;DHT22;150;52.352;14.058;2022-10-17T06:58:44;16.80;59.30
326;DHT22;150;52.352;14.058;2022-10-17T07:01:12;16.90;59.40
326;DHT22;150;52.352;14.058;2022-10-17T07:03:39;17.00;58.80
326;DHT22;150;52.352;14.058;2022-10-17T07:06:07;17.00;59.10
326;DHT22;150;52.352;14.058;2022-10-17T07:08:35;17.20;58.80
326;DHT22;150;52.352;14.058;2022-10-17T07:11:09;17.40;58.60
326;DHT22;150;52.352;14.058;2022-10-17T07:13:36;17.50;57.20
326;DHT22;150;52.352;14.058;2022-10-17T07:16:03;17.60;56.50
326;DHT22;150;52.352;14.058;2022-10-17T07:18:30;17.70;56.20
326;DHT22;150;52.352;14.058;2022-10-17T07:20:56;17.80;55.10
326;DHT22;150;52.352;14.058;2022-10-17T07:23:23;17.80;55.60
326;DHT22;150;52.352;14.058;2022-10-17T07:25:49;18.00;56.00
326;DHT22;150;52.352;14.058;2022-10-17T07:28:18;18.20;54.90
326;DHT22;150;52.352;14.058;2022-10-17T07:30:44;18.20;52.70
326;DHT22;150;52.352;14.058;2022-10-17T07:33:11;18.30;52.90
326;DHT22;150;52.352;14.058;2022-10-17T07:35:38;18.40;52.30
326;DHT22;150;52.352;14.058;2022-10-17T07:38:06;18.50;52.00
326;DHT22;150;52.352;14.058;2022-10-17T07:40:33;18.60;51.00
326;DHT22;150;52.352;14.058;2022-10-17T07:42:59;18.70;50.70
326;DHT22;150;52.352;14.058;2022-10-17T07:45:27;18.80;50.80
326;DHT22;150;52.352;14.058;2022-10-17T07:47:55;18.80;49.80
326;DHT22;150;52.352;14.058;2022-10-17T07:50:22;18.80;49.30
326;DHT22;150;52.352;14.058;2022-10-17T07:52:48;18.70;49.90
326;DHT22;150;52.352;14.058;2022-10-17T07:55:15;18.70;49.70
326;DHT22;150;52.352;14.058;2022-10-17T07:57:42;18.80;49.60
326;DHT22;150;52.352;14.058;2022-10-17T08:00:09;18.90;49.20
326;DHT22;150;52.352;14.058;2022-10-17T08:02:37;19.00;48.80
326;DHT22;150;52.352;14.058;2022-10-17T08:05:05;19.00;48.30
326;DHT22;150;52.352;14.058;2022-10-17T08:07:32;19.10;48.20
326;DHT22;150;52.352;14.058;2022-10-17T08:09:59;19.20;48.20
326;DHT22;150;52.352;14.058;2022-10-17T08:12:26;19.30;47.50
326;DHT22;150;52.352;14.058;2022-10-17T08:14:58;19.50;47.10
326;DHT22;150;52.352;14.058;2022-10-17T08:17:25;19.60;46.00
326;DHT22;150;52.352;14.058;2022-10-17T08:19:53;19.50;45.90
326;DHT22;150;52.352;14.058;2022-10-17T08:22:20;19.50;46.20
326;DHT22;150;52.352;14.058;2022-10-17T08:24:46;19.70;46.40
326;DHT22;150;52.352;14.058;2022-10-17T08:27:13;19.70;45.80
326;DHT22;150;52.352;14.058;2022-10-17T08:29:45;19.90;44.90
326;DHT22;150;52.352;14.058;2022-10-17T08:32:13;20.00;43.90
326;DHT22;150;52.352;14.058;2022-10-17T08:34:39;20.20;43.40
326;DHT22;150;52.352;14.058;2022-10-17T08:37:07;20.10;43.10
326;DHT22;150;52.352;14.058;2022-10-17T08:39:34;19.90;43.10
326;DHT22;150;52.352;14.058;2022-10-17T08:42:21;20.00;44.20
326;DHT22;150;52.352;14.058;2022-10-17T08:44:56;20.20;44.30
326;DHT22;150;52.352;14.058;2022-10-17T08:47:32;20.30;43.40
326;DHT22;150;52.352;14.058;2022-10-17T08:50:02;20.40;43.20
326;DHT22;150;52.352;14.058;2022-10-17T08:52:35;20.60;43.00
326;DHT22;150;52.352;14.058;2022-10-17T08:55:12;20.80;42.50
326;DHT22;150;52.352;14.058;2022-10-17T08:57:40;21.00;42.20
326;DHT22;150;52.352;14.058;2022-10-17T09:00:13;21.20;40.30
326;DHT22;150;52.352;14.058;2022-10-17T09:02:48;21.20;39.50
326;DHT22;150;52.352;14.058;2022-10-17T09:05:26;21.30;39.50
326;DHT22;150;52.352;14.058;2022-10-17T09:08:01;21.30;38.70
326;DHT22;150;52.352;14.058;2022-10-17T09:10:33;21.50;38.80
326;DHT22;150;52.352;14.058;2022-10-17T09:13:09;21.50;37.50
326;DHT22;150;52.352;14.058;2022-10-17T09:15:49;21.40;37.40
326;DHT22;150;52.352;14.058;2022-10-17T09:18:24;21.50;38.10
326;DHT22;150;52.352;14.058;2022-10-17T09:20:54;21.50;37.20
326;DHT22;150;52.352;14.058;2022-10-17T09:23:25;21.50;38.00
326;DHT22;150;52.352;14.058;2022-10-17T09:25:54;21.60;38.90
326;DHT22;150;52.352;14.058;2022-10-17T09:28:26;21.80;39.20
326;DHT22;150;52.352;14.058;2022-10-17T09:30:57;22.00;38.10
326;DHT22;150;52.352;14.058;2022-10-17T09:33:26;22.00;37.90
326;DHT22;150;52.352;14.058;2022-10-17T09:35:55;22.20;37.00
326;DHT22;150;52.352;14.058;2022-10-17T09:38:27;22.30;36.70
326;DHT22;150;52.352;14.058;2022-10-17T09:40:56;22.30;37.00
326;DHT22;150;52.352;14.058;2022-10-17T09:43:23;22.40;36.60
326;DHT22;150;52.352;14.058;2022-10-17T09:45:58;22.40;35.80
326;DHT22;150;52.352;14.058;2022-10-17T09:48:31;22.50;35.60
326;DHT22;150;52.352;14.058;2022-10-17T09:51:01;22.50;35.80
326;DHT22;150;52.352;14.058;2022-10-17T09:53:33;22.40;34.80
326;DHT22;150;52.352;14.058;2022-10-17T09:56:06;22.50;35.80
326;DHT22;150;52.352;14.058;2022-10-17T09:58:41;22.60;35.60
326;DHT22;150;52.352;14.058;2022-10-17T10:01:16;22.60;34.40
326;DHT22;150;52.352;14.058;2022-10-17T10:03:43;22.60;34.60
326;DHT22;150;52.352;14.058;2022-10-17T10:06:13;22.70;34.80
326;DHT22;150;52.352;14.058;2022-10-17T10:08:49;22.80;34.40
326;DHT22;150;52.352;14.058;2022-10-17T10:11:18;22.80;33.50
326;DHT22;150;52.352;14.058;2022-10-17T10:13:47;22.80;34.30
326;DHT22;150;52.352;14.058;2022-10-17T10:16:17;23.00;34.40
326;DHT22;150;52.352;14.058;2022-10-17T10:18:44;23.10;34.10
326;DHT22;150;52.352;14.058;2022-10-17T10:21:13;23.20;34.10
326;DHT22;150;52.352;14.058;2022-10-17T10:23:41;23.30;33.20
326;DHT22;150;52.352;14.058;2022-10-17T10:26:19;23.40;32.70
326;DHT22;150;52.352;14.058;2022-10-17T10:28:52;23.40;32.00
326;DHT22;150;52.352;14.058;2022-10-17T10:31:26;23.40;32.10
326;DHT22;150;52.352;14.058;2022-10-17T10:33:53;23.40;32.10
326;DHT22;150;52.352;14.058;2022-10-17T10:36:20;23.50;32.50
326;DHT22;150;52.352;14.058;2022-10-17T10:38:51;23.40;32.10
326;DHT22;150;52.352;14.058;2022-10-17T10:41:19;23.40;31.70
326;DHT22;150;52.352;14.058;2022-10-17T10:43:48;23.30;31.70
326;DHT22;150;52.352;14.058;2022-10-17T10:46:17;23.20;31.80
326;DHT22;150;52.352;14.058;2022-10-17T10:48:53;23.20;32.10
326;DHT22;150;52.352;14.058;2022-10-17T10:51:24;23.30;32.40
326;DHT22;150;52.352;14.058;2022-10-17T10:53:59;23.40;32.30
326;DHT22;150;52.352;14.058;2022-10-17T10:56:32;23.40;32.30
326;DHT22;150;52.352;14.058;2022-10-17T10:59:04;23.40;31.80
326;DHT22;150;52.352;14.058;2022-10-17T11:01:37;23.50;32.60
326;DHT22;150;52.352;14.058;2022-10-17T11:04:23;23.60;32.00
326;DHT22;150;52.352;14.058;2022-10-17T11:06:54;23.60;31.80
326;DHT22;150;52.352;14.058;2022-10-17T11:09:30;23.60;31.30
326;DHT22;150;52.352;14.058;2022-10-17T11:12:04;23.60;31.60
326;DHT22;150;52.352;14.058;2022-10-17T11:14:38;23.60;32.20
326;DHT22;150;52.352;14.058;2022-10-17T11:17:12;23.70;31.40
326;DHT22;150;52.352;14.058;2022-10-17T11:19:45;23.70;31.50
326;DHT22;150;52.352;14.058;2022-10-17T11:22:15;23.70;31.60
326;DHT22;150;52.352;14.058;2022-10-17T11:24:45;23.90;31.70
326;DHT22;150;52.352;14.058;2022-10-17T11:27:15;23.80;31.10
326;DHT22;150;52.352;14.058;2022-10-17T11:29:43;23.90;31.10
326;DHT22;150;52.352;14.058;2022-10-17T11:32:18;23.90;30.60
326;DHT22;150;52.352;14.058;2022-10-17T11:34:49;24.00;30.10
326;DHT22;150;52.352;14.058;2022-10-17T11:37:20;23.90;30.30
326;DHT22;150;52.352;14.058;2022-10-17T11:39:51;24.20;30.80
326;DHT22;150;52.352;14.058;2022-10-17T11:42:24;24.30;29.90
326;DHT22;150;52.352;14.058;2022-10-17T11:44:55;24.50;30.00
326;DHT22;150;52.352;14.058;2022-10-17T11:47:30;24.60;28.80
326;DHT22;150;52.352;14.058;2022-10-17T11:50:03;24.70;28.50
326;DHT22;150;52.352;14.058;2022-10-17T11:52:35;24.60;28.30
326;DHT22;150;52.352;14.058;2022-10-17T11:55:10;24.70;28.70
326;DHT22;150;52.352;14.058;2022-10-17T11:57:51;24.70;28.40
326;DHT22;150;52.352;14.058;2022-10-17T12:00:33;24.70;27.80
326;DHT22;150;52.352;14.058;2022-10-17T12:03:21;24.80;28.20
326;DHT22;150;52.352;14.058;2022-10-17T12:05:53;24.90;27.90
326;DHT22;150;52.352;14.058;2022-10-17T12:08:27;25.00;27.40
326;DHT22;150;52.352;14.058;2022-10-17T12:10:58;24.80;27.00
326;DHT22;150;52.352;14.058;2022-10-17T12:13:47;24.60;27.50
326;DHT22;150;52.352;14.058;2022-10-17T12:16:37;24.40;27.50
326;DHT22;150;52.352;14.058;2022-10-17T12:19:23;24.30;27.90
326;DHT22;150;52.352;14.058;2022-10-17T12:21:54;24.50;28.30
326;DHT22;150;52.352;14.058;2022-10-17T12:24:34;24.40;27.70
326;DHT22;150;52.352;14.058;2022-10-17T12:27:34;24.50;28.00
326;DHT22;150;52.352;14.058;2022-10-17T12:30:05;24.60;28.30
326;DHT22;150;52.352;14.058;2022-10-17T12:32:32;24.60;27.70
326;DHT22;150;52.352;14.058;2022-10-17T12:35:00;24.60;27.50
326;DHT22;150;52.352;14.058;2022-10-17T12:40:58;24.60;27.30
326;DHT22;150;52.352;14.058;2022-10-17T12:43:55;24.70;27.30
326;DHT22;150;52.352;14.058;2022-10-17T12:46:57;24.80;27.20
326;DHT22;150;52.352;14.058;2022-10-17T12:49:41;24.70;27.30
326;DHT22;150;52.352;14.058;2022-10-17T12:55:13;24.80;27.30
326;DHT22;150;52.352;14.058;2022-10-17T12:57:47;24.80;27.00
326;DHT22;150;52.352;14.058;2022-10-17T13:00:18;24.70;27.60
326;DHT22;150;52.352;14.058;2022-10-17T13:02:48;24.80;27.60
326;DHT22;150;52.352;14.058;2022-10-17T13:05:20;24.80;27.40
326;DHT22;150;52.352;14.058;2022-10-17T13:07:49;24.90;27.20
326;DHT22;150;52.352;14.058;2022-10-17T13:10:22;25.00;26.60
326;DHT22;150;52.352;14.058;2022-10-17T13:12:50;25.00;27.00
326;DHT22;150;52.352;14.058;2022-10-17T13:15:18;25.20;26.90
326;DHT22;150;52.352;14.058;2022-10-17T13:17:56;25.20;26.30
326;DHT22;150;52.352;14.058;2022-10-17T13:20:24;25.30;26.20
326;DHT22;150;52.352;14.058;2022-10-17T13:22:53;25.20;26.10
326;DHT22;150;52.352;14.058;2022-10-17T13:25:22;25.20;26.40
326;DHT22;150;52.352;14.058;2022-10-17T13:27:49;25.20;25.70
326;DHT22;150;52.352;14.058;2022-10-17T13:30:29;25.20;26.00
326;DHT22;150;52.352;14.058;2022-10-17T13:32:57;25.20;26.20
326;DHT22;150;52.352;14.058;2022-10-17T13:35:27;25.30;26.70
326;DHT22;150;52.352;14.058;2022-10-17T13:37:54;25.30;26.20
326;DHT22;150;52.352;14.058;2022-10-17T13:40:23;25.40;26.60
326;DHT22;150;52.352;14.058;2022-10-17T13:42:51;25.30;26.10
326;DHT22;150;52.352;14.058;2022-10-17T13:45:21;25.30;26.60
326;DHT22;150;52.352;14.058;2022-10-17T13:47:49;25.40;26.50
326;DHT22;150;52.352;14.058;2022-10-17T13:50:23;25.40;26.30
326;DHT22;150;52.352;14.058;2022-10-17T13:53:06;25.30;26.30
326;DHT22;150;52.352;14.058;2022-10-17T13:55:33;25.30;26.60
326;DHT22;150;52.352;14.058;2022-10-17T13:58:09;25.30;26.60
326;DHT22;150;52.352;14.058;2022-10-17T14:00:35;25.20;26.80
326;DHT22;150;52.352;14.058;2022-10-17T14:03:03;25.00;27.00
326;DHT22;150;52.352;14.058;2022-10-17T14:05:32;25.00;27.20
326;DHT22;150;52.352;14.058;2022-10-17T14:08:00;25.00;27.20
326;DHT22;150;52.352;14.058;2022-10-17T14:10:30;24.90;27.50
326;DHT22;150;52.352;14.058;2022-10-17T14:12:58;24.80;27.80
326;DHT22;150;52.352;14.058;2022-10-17T14:15:27;24.80;28.00
326;DHT22;150;52.352;14.058;2022-10-17T14:17:56;24.90;27.80
326;DHT22;150;52.352;14.058;2022-10-17T14:20:24;24.90;27.70
326;DHT22;150;52.352;14.058;2022-10-17T14:22:55;24.90;27.40
326;DHT22;150;52.352;14.058;2022-10-17T14:25:28;24.90;27.40
326;DHT22;150;52.352;14.058;2022-10-17T14:28:00;25.00;27.00
326;DHT22;150;52.352;14.058;2022-10-17T14:30:33;24.90;27.50
326;DHT22;150;52.352;14.058;2022-10-17T14:33:04;24.90;27.20
326;DHT22;150;52.352;14.058;2022-10-17T14:35:31;25.00;27.10
326;DHT22;150;52.352;14.058;2022-10-17T14:38:01;24.80;27.30
326;DHT22;150;52.352;14.058;2022-10-17T14:40:30;24.90;27.30
326;DHT22;150;52.352;14.058;2022-10-17T14:42:59;25.00;27.40
326;DHT22;150;52.352;14.058;2022-10-17T14:45:29;25.00;27.10
326;DHT22;150;52.352;14.058;2022-10-17T14:48:01;25.00;27.10
326;DHT22;150;52.352;14.058;2022-10-17T14:50:30;25.00;27.20
326;DHT22;150;52.352;14.058;2022-10-17T14:53:03;25.10;27.20
326;DHT22;150;52.352;14.058;2022-10-17T14:55:32;25.20;27.50
326;DHT22;150;52.352;14.058;2022-10-17T14:58:00;25.20;26.80
326;DHT22;150;52.352;14.058;2022-10-17T15:00:27;25.20;27.10
326;DHT22;150;52.352;14.058;2022-10-17T15:02:54;25.20;27.10
326;DHT22;150;52.352;14.058;2022-10-17T15:05:21;25.10;27.00
326;DHT22;150;52.352;14.058;2022-10-17T15:07:50;25.00;27.30
326;DHT22;150;52.352;14.058;2022-10-17T15:10:30;24.80;27.40
326;DHT22;150;52.352;14.058;2022-10-17T15:12:57;24.70;27.60
326;DHT22;150;52.352;14.058;2022-10-17T15:15:26;24.60;27.90
326;DHT22;150;52.352;14.058;2022-10-17T15:17:52;24.50;28.10
326;DHT22;150;52.352;14.058;2022-10-17T15:20:19;24.50;28.30
326;DHT22;150;52.352;14.058;2022-10-17T15:22:50;24.50;28.30
326;DHT22;150;52.352;14.058;2022-10-17T15:25:17;24.30;28.20
326;DHT22;150;52.352;14.058;2022-10-17T15:27:45;24.30;28.40
326;DHT22;150;52.352;14.058;2022-10-17T15:30:18;24.20;28.60
326;DHT22;150;52.352;14.058;2022-10-17T15:32:46;24.10;28.70
326;DHT22;150;52.352;14.058;2022-10-17T15:35:12;24.00;28.70
326;DHT22;150;52.352;14.058;2022-10-17T15:37:39;23.90;28.80
326;DHT22;150;52.352;14.058;2022-10-17T15:40:12;23.90;28.90
326;DHT22;150;52.352;14.058;2022-10-17T15:42:39;23.70;29.20
326;DHT22;150;52.352;14.058;2022-10-17T15:45:08;23.60;29.60
326;DHT22;150;52.352;14.058;2022-10-17T15:47:36;23.60;29.70
326;DHT22;150;52.352;14.058;2022-10-17T15:50:04;23.50;29.80
326;DHT22;150;52.352;14.058;2022-10-17T15:52:33;23.40;29.80
326;DHT22;150;52.352;14.058;2022-10-17T15:54:59;23.40;30.00
326;DHT22;150;52.352;14.058;2022-10-17T15:57:27;23.40;30.00
326;DHT22;150;52.352;14.058;2022-10-17T15:59:55;23.30;30.40
326;DHT22;150;52.352;14.058;2022-10-17T16:02:24;23.30;30.60
326;DHT22;150;52.352;14.058;2022-10-17T16:04:51;23.30;30.60
326;DHT22;150;52.352;14.058;2022-10-17T16:07:19;23.20;30.50
326;DHT22;150;52.352;14.058;2022-10-17T16:09:46;23.10;30.60
326;DHT22;150;52.352;14.058;2022-10-17T16:12:15;23.00;30.90
326;DHT22;150;52.352;14.058;2022-10-17T16:14:42;23.00;31.10
326;DHT22;150;52.352;14.058;2022-10-17T16:17:12;22.90;31.40
326;DHT22;150;52.352;14.058;2022-10-17T16:19:40;22.90;31.50
326;DHT22;150;52.352;14.058;2022-10-17T16:22:15;22.80;31.40
326;DHT22;150;52.352;14.058;2022-10-17T16:24:43;22.80;31.80
326;DHT22;150;52.352;14.058;2022-10-17T16:27:10;22.70;31.80
326;DHT22;150;52.352;14.058;2022-10-17T16:29:36;22.70;31.80
326;DHT22;150;52.352;14.058;2022-10-17T16:32:03;22.70;31.80
326;DHT22;150;52.352;14.058;2022-10-17T16:34:30;22.60;31.80
326;DHT22;150;52.352;14.058;2022-10-17T16:36:58;22.60;31.80
326;DHT22;150;52.352;14.058;2022-10-17T16:39:24;22.60;31.80
326;DHT22;150;52.352;14.058;2022-10-17T16:41:51;22.50;32.40
326;DHT22;150;52.352;14.058;2022-10-17T16:44:17;22.40;32.50
326;DHT22;150;52.352;14.058;2022-10-17T16:46:44;22.40;32.40
326;DHT22;150;52.352;14.058;2022-10-17T16:49:11;22.30;32.40
326;DHT22;150;52.352;14.058;2022-10-17T16:51:40;22.20;32.30
326;DHT22;150;52.352;14.058;2022-10-17T16:54:08;22.20;32.30